Time;durP1;ratioP1;P1;durP2;ratioP2;P2;SDS_P1;SDS_P2;PMS_P1;PMS_P2;Temp;Humidity;BMP_temperature;BMP_pressure;BME280_temperature;BME280_humidity;BME280_pressure;Samples;Min_cycle;Max_cycle;Signal;HPM_P1;HPM_P2
2022/01/13 00:01:12;;;;;;;;;;;15.40;35.20;;;;;;8365927;28;19916;-47
2022/01/13 00:05:13;;;;;;;;;;;15.40;35.20;;;;;;8366088;28;20333;-48
2022/01/13 00:09:14;;;;;;;;;;;15.40;35.10;;;;;;8365955;28;19913;-49
2022/01/13 00:13:22;;;;;;;;;;;15.40;35.20;;;;;;8365476;28;19916;-47
2022/01/13 00:17:33;;;;;;;;;;;15.50;35.10;;;;;;8348061;28;19913;-47
2022/01/13 00:21:40;;;;;;;;;;;15.50;35.10;;;;;;8368881;28;19918;-47
2022/01/13 00:25:40;;;;;;;;;;;15.50;35.10;;;;;;8365007;28;19975;-47
2022/01/13 00:29:42;;;;;;;;;;;15.40;35.00;;;;;;8365230;28;19924;-48
2022/01/13 00:33:45;;;;;;;;;;;15.40;35.00;;;;;;8364962;28;19913;-46
2022/01/13 00:37:46;;;;;;;;;;;15.40;35.00;;;;;;8365493;28;20284;-47
2022/01/13 00:41:46;;;;;;;;;;;15.40;35.00;;;;;;8365289;28;19947;-47
2022/01/13 00:45:48;;;;;;;;;;;15.40;35.10;;;;;;8364449;28;19924;-47
2022/01/13 00:49:49;;;;;;;;;;;15.40;35.00;;;;;;8364781;28;19974;-47
2022/01/13 00:53:49;;;;;;;;;;;15.40;35.10;;;;;;8364691;28;19960;-48
2022/01/13 00:57:50;;;;;;;;;;;15.30;35.10;;;;;;8364064;28;20463;-47
2022/01/13 01:01:50;;;;;;;;;;;15.30;35.10;;;;;;8364359;28;19924;-47
2022/01/13 01:05:51;;;;;;;;;;;15.30;35.10;;;;;;8364122;28;19917;-46
2022/01/13 01:09:52;;;;;;;;;;;15.30;35.10;;;;;;8363696;28;19961;-47
2022/01/13 01:13:53;;;;;;;;;;;15.20;35.10;;;;;;8364264;28;19917;-47
2022/01/13 01:18:01;;;;;;;;;;;15.30;35.10;;;;;;8363979;28;20384;-47
2022/01/13 01:26:32;;;;;;;;;;;15.30;35.10;;;;;;8368894;28;19928;-48
2022/01/13 01:30:44;;;;;;;;;;;15.30;35.10;;;;;;8366816;28;19944;-47
2022/01/13 01:38:53;;;;;;;;;;;15.30;35.50;;;;;;8368237;28;19913;-47
2022/01/13 01:42:53;;;;;;;;;;;15.30;35.00;;;;;;8362711;28;19917;-47
2022/01/13 01:46:54;;;;;;;;;;;15.30;35.00;;;;;;8363441;28;19924;-47
2022/01/13 01:50:58;;;;;;;;;;;15.30;34.90;;;;;;8362595;28;19924;-48
2022/01/13 01:54:58;;;;;;;;;;;15.30;34.90;;;;;;8362537;28;20365;-47
2022/01/13 01:59:02;;;;;;;;;;;15.30;34.90;;;;;;8362894;28;19913;-47
2022/01/13 02:03:05;;;;;;;;;;;15.30;34.90;;;;;;8354964;28;20290;-47
2022/01/13 02:07:07;;;;;;;;;;;15.30;34.80;;;;;;8362749;28;20285;-48
2022/01/13 02:11:08;;;;;;;;;;;15.30;34.80;;;;;;8362597;28;19925;-47
2022/01/13 02:19:10;;;;;;;;;;;15.30;34.80;;;;;;8362157;28;19921;-48
2022/01/13 02:23:10;;;;;;;;;;;15.30;34.80;;;;;;8362706;28;20362;-46
2022/01/13 02:27:11;;;;;;;;;;;15.30;34.90;;;;;;8362680;28;19917;-47
2022/01/13 02:31:12;;;;;;;;;;;15.20;34.90;;;;;;8362010;28;19932;-48
2022/01/13 02:35:13;;;;;;;;;;;15.20;34.90;;;;;;8362309;28;19956;-46
2022/01/13 02:39:13;;;;;;;;;;;15.20;34.90;;;;;;8362235;28;20281;-48
2022/01/13 02:43:15;;;;;;;;;;;15.20;35.00;;;;;;8361916;28;19967;-48
2022/01/13 02:47:36;;;;;;;;;;;15.10;34.90;;;;;;8362543;28;19924;-48
2022/01/13 02:51:37;;;;;;;;;;;15.10;35.00;;;;;;8368263;28;19979;-47
2022/01/13 02:55:37;;;;;;;;;;;15.10;34.90;;;;;;8367801;28;19917;-47
2022/01/13 02:59:38;;;;;;;;;;;15.20;34.90;;;;;;8368345;28;20282;-48
2022/01/13 03:03:39;;;;;;;;;;;15.10;34.90;;;;;;8368263;28;19952;-47
2022/01/13 03:07:40;;;;;;;;;;;15.10;34.90;;;;;;8367584;28;19997;-47
2022/01/13 03:11:43;;;;;;;;;;;15.10;34.80;;;;;;8367905;28;19928;-47
2022/01/13 03:15:43;;;;;;;;;;;15.10;34.80;;;;;;8367282;28;19916;-46
2022/01/13 03:19:44;;;;;;;;;;;15.20;34.70;;;;;;8367550;28;20425;-48
2022/01/13 03:23:44;;;;;;;;;;;15.20;34.80;;;;;;8367603;28;19920;-48
2022/01/13 03:27:52;;;;;;;;;;;15.20;34.70;;;;;;8367096;28;19971;-47
2022/01/13 03:31:52;;;;;;;;;;;15.20;34.80;;;;;;8369879;28;19924;-47
2022/01/13 03:35:53;;;;;;;;;;;15.20;34.70;;;;;;8367061;28;20423;-49
2022/01/13 03:39:53;;;;;;;;;;;15.20;34.70;;;;;;8366565;28;20286;-51
2022/01/13 03:43:55;;;;;;;;;;;15.20;34.70;;;;;;8367166;28;19913;-47
2022/01/13 03:47:56;;;;;;;;;;;15.20;34.70;;;;;;8367025;28;19917;-47
2022/01/13 03:51:59;;;;;;;;;;;15.20;34.60;;;;;;8366309;28;20377;-48
2022/01/13 03:56:06;;;;;;;;;;;15.20;34.60;;;;;;8366749;28;19924;-48
2022/01/13 04:00:42;;;;;;;;;;;15.20;34.60;;;;;;8365942;28;20372;-48
2022/01/13 04:04:46;;;;;;;;;;;15.20;34.60;;;;;;8365431;28;19958;-47
2022/01/13 04:08:47;;;;;;;;;;;15.20;34.70;;;;;;8366283;28;20385;-48
2022/01/13 04:12:47;;;;;;;;;;;15.10;34.60;;;;;;8365778;28;20328;-47
2022/01/13 04:16:48;;;;;;;;;;;15.10;34.70;;;;;;8366036;28;19963;-48
2022/01/13 04:20:48;;;;;;;;;;;15.10;34.70;;;;;;8365503;28;20434;-50
2022/01/13 04:24:50;;;;;;;;;;;15.10;34.80;;;;;;8365197;28;19917;-48
2022/01/13 04:29:00;;;;;;;;;;;15.10;34.80;;;;;;8365835;28;20002;-49
2022/01/13 04:33:00;;;;;;;;;;;15.10;34.80;;;;;;8365634;28;19968;-49
2022/01/13 04:37:01;;;;;;;;;;;15.10;34.80;;;;;;8364707;28;20366;-47
2022/01/13 04:41:02;;;;;;;;;;;15.00;34.70;;;;;;8365342;28;19924;-47
2022/01/13 04:45:03;;;;;;;;;;;15.10;34.80;;;;;;8365019;28;19917;-47
2022/01/13 04:49:05;;;;;;;;;;;15.10;34.70;;;;;;8364099;28;19952;-46
2022/01/13 04:53:05;;;;;;;;;;;15.10;34.70;;;;;;8364694;28;19924;-47
2022/01/13 04:57:14;;;;;;;;;;;15.10;34.70;;;;;;8364584;28;20008;-47
2022/01/13 05:01:15;;;;;;;;;;;15.20;34.70;;;;;;8365106;28;19921;-47
2022/01/13 05:05:15;;;;;;;;;;;15.10;34.60;;;;;;8364179;28;19948;-47
2022/01/13 05:09:16;;;;;;;;;;;15.10;34.60;;;;;;8364369;28;20283;-47
2022/01/13 05:13:16;;;;;;;;;;;15.20;34.60;;;;;;8333636;28;19932;-47
2022/01/13 05:17:45;;;;;;;;;;;15.20;34.50;;;;;;8357396;28;19923;-48
2022/01/13 05:22:15;;;;;;;;;;;15.10;34.50;;;;;;8363481;28;19996;-46
2022/01/13 05:25:58;;;;;;;;;;;15.10;34.40;;;;;;8361907;28;19924;-47
2022/01/13 05:30:01;;;;;;;;;;;15.10;34.40;;;;;;8363523;28;19920;-46
2022/01/13 05:34:01;;;;;;;;;;;15.10;34.50;;;;;;8363188;28;20031;-47
2022/01/13 05:38:03;;;;;;;;;;;15.10;34.50;;;;;;8363255;28;19916;-47
2022/01/13 05:42:04;;;;;;;;;;;15.10;34.50;;;;;;8363395;28;20324;-47
2022/01/13 05:46:04;;;;;;;;;;;15.00;34.50;;;;;;8362637;28;19917;-48
2022/01/13 05:50:05;;;;;;;;;;;15.00;34.50;;;;;;8362995;28;19925;-46
2022/01/13 05:54:05;;;;;;;;;;;15.00;34.50;;;;;;8363255;28;20403;-48
2022/01/13 05:58:06;;;;;;;;;;;15.00;34.60;;;;;;8362518;28;19928;-47
2022/01/13 06:02:06;;;;;;;;;;;15.00;34.60;;;;;;8362985;28;19999;-47
2022/01/13 06:06:07;;;;;;;;;;;15.00;34.60;;;;;;8362748;28;19917;-47
2022/01/13 06:10:09;;;;;;;;;;;15.00;34.60;;;;;;8362244;28;19931;-47
2022/01/13 06:14:10;;;;;;;;;;;15.00;34.60;;;;;;8362778;28;19999;-47
2022/01/13 06:18:11;;;;;;;;;;;14.90;34.60;;;;;;8362417;28;19983;-47
2022/01/13 06:22:12;;;;;;;;;;;14.90;34.50;;;;;;8362713;28;20374;-46
2022/01/13 06:26:12;;;;;;;;;;;15.00;34.50;;;;;;8369536;28;19920;-47
2022/01/13 06:30:14;;;;;;;;;;;15.00;34.60;;;;;;8369121;28;19968;-47
2022/01/13 06:34:14;;;;;;;;;;;15.00;34.50;;;;;;8368909;28;19917;-47
2022/01/13 06:38:15;;;;;;;;;;;15.00;34.50;;;;;;8368903;28;19926;-46
2022/01/13 06:42:16;;;;;;;;;;;15.00;34.40;;;;;;8368675;28;19969;-46
2022/01/13 06:46:17;;;;;;;;;;;15.00;34.40;;;;;;8368044;28;20392;-46
2022/01/13 06:50:17;;;;;;;;;;;15.00;34.40;;;;;;8368229;28;19925;-46
2022/01/13 06:54:18;;;;;;;;;;;15.10;34.40;;;;;;8368691;28;19912;-48
2022/01/13 06:58:18;;;;;;;;;;;15.00;34.30;;;;;;8367917;28;19966;-47
2022/01/13 07:02:19;;;;;;;;;;;15.00;34.30;;;;;;8368133;28;19998;-47
2022/01/13 07:06:20;;;;;;;;;;;15.00;34.30;;;;;;8368156;28;20370;-49
2022/01/13 07:10:20;;;;;;;;;;;15.00;34.30;;;;;;8367351;28;19936;-48
2022/01/13 07:14:21;;;;;;;;;;;15.00;34.30;;;;;;8367817;28;19924;-49
2022/01/13 07:18:21;;;;;;;;;;;15.00;34.30;;;;;;8367636;28;19921;-48
2022/01/13 07:22:22;;;;;;;;;;;15.00;34.40;;;;;;8366819;28;19944;-48
2022/01/13 07:26:22;;;;;;;;;;;15.00;34.40;;;;;;8367016;28;19960;-48
2022/01/13 07:30:23;;;;;;;;;;;14.90;34.40;;;;;;8367054;28;20006;-48
2022/01/13 07:34:23;;;;;;;;;;;14.90;34.40;;;;;;8366103;28;20536;-48
2022/01/13 07:38:24;;;;;;;;;;;14.90;34.40;;;;;;8367108;28;19917;-48
2022/01/13 07:42:26;;;;;;;;;;;14.90;34.40;;;;;;8366865;28;19975;-48
2022/01/13 07:46:26;;;;;;;;;;;14.80;34.40;;;;;;8366632;28;19921;-50
2022/01/13 07:50:27;;;;;;;;;;;14.80;34.40;;;;;;8366657;28;19933;-48
2022/01/13 07:54:30;;;;;;;;;;;14.80;34.40;;;;;;8366610;28;20134;-47
2022/01/13 07:58:30;;;;;;;;;;;14.80;34.50;;;;;;8365744;28;19917;-47
2022/01/13 08:02:31;;;;;;;;;;;14.80;34.40;;;;;;8366300;28;20385;-46
2022/01/13 08:06:31;;;;;;;;;;;14.90;34.40;;;;;;8365164;28;19916;-48
2022/01/13 08:10:32;;;;;;;;;;;14.90;34.40;;;;;;8365334;28;19970;-48
2022/01/13 08:14:32;;;;;;;;;;;14.90;34.40;;;;;;8365991;28;19986;-46
2022/01/13 08:23:00;;;;;;;;;;;14.90;34.30;;;;;;8334273;28;19924;-47
2022/01/13 08:27:00;;;;;;;;;;;15.00;34.40;;;;;;8365474;28;19917;-48
2022/01/13 08:31:03;;;;;;;;;;;15.00;34.30;;;;;;8364770;28;20305;-48
2022/01/13 08:35:05;;;;;;;;;;;15.00;34.30;;;;;;8365590;28;19939;-48
2022/01/13 08:39:05;;;;;;;;;;;15.00;34.30;;;;;;8365731;28;19917;-51
2022/01/13 08:43:06;;;;;;;;;;;15.00;34.30;;;;;;8364402;28;19928;-46
2022/01/13 08:47:06;;;;;;;;;;;15.00;34.30;;;;;;8364785;28;19916;-48
2022/01/13 08:51:07;;;;;;;;;;;15.00;34.20;;;;;;8364737;28;20003;-48
2022/01/13 08:55:07;;;;;;;;;;;15.00;34.30;;;;;;8364744;28;20405;-48
2022/01/13 08:59:08;;;;;;;;;;;15.00;34.30;;;;;;8364323;28;20008;-47
2022/01/13 09:03:08;;;;;;;;;;;15.00;34.30;;;;;;8364301;28;20400;-48
2022/01/13 09:07:09;;;;;;;;;;;14.90;34.20;;;;;;8363650;28;20298;-47
2022/01/13 09:11:09;;;;;;;;;;;15.00;34.30;;;;;;8363866;28;20329;-47
2022/01/13 09:15:18;;;;;;;;;;;14.90;34.30;;;;;;8364153;28;19913;-46
2022/01/13 09:19:19;;;;;;;;;;;15.00;34.30;;;;;;8363387;28;19943;-49
2022/01/13 09:23:20;;;;;;;;;;;15.00;34.40;;;;;;8364080;28;19917;-49
2022/01/13 09:27:20;;;;;;;;;;;14.90;34.30;;;;;;8363794;28;20411;-48
2022/01/13 09:31:21;;;;;;;;;;;14.90;34.30;;;;;;8363019;28;19968;-48
2022/01/13 09:35:21;;;;;;;;;;;14.90;34.30;;;;;;8364082;28;19913;-47
2022/01/13 09:39:22;;;;;;;;;;;14.90;34.30;;;;;;8363550;28;19920;-48
2022/01/13 09:43:25;;;;;;;;;;;14.90;34.40;;;;;;8362823;28;19917;-47
2022/01/13 09:47:26;;;;;;;;;;;14.90;34.40;;;;;;8348726;28;19917;-49
2022/01/13 09:51:26;;;;;;;;;;;15.00;34.50;;;;;;8352310;28;19955;-48
2022/01/13 09:55:27;;;;;;;;;;;15.00;34.50;;;;;;8362598;28;19958;-47
2022/01/13 09:59:27;;;;;;;;;;;15.00;34.40;;;;;;8362537;28;19924;-47
2022/01/13 10:03:28;;;;;;;;;;;15.00;34.40;;;;;;8362917;28;19917;-48
2022/01/13 10:07:30;;;;;;;;;;;15.10;34.40;;;;;;8362211;28;19948;-48
2022/01/13 10:11:40;;;;;;;;;;;15.10;34.40;;;;;;8362813;28;20011;-46
2022/01/13 10:20:09;;;;;;;;;;;15.10;34.40;;;;;;8362213;28;20385;-48
2022/01/13 10:24:12;;;;;;;;;;;15.10;34.40;;;;;;8362720;28;19917;-48
2022/01/13 10:28:17;;;;;;;;;;;15.10;34.40;;;;;;8361991;28;19924;-47
2022/01/13 10:32:17;;;;;;;;;;;15.10;34.40;;;;;;8362240;28;19924;-47
2022/01/13 10:36:17;;;;;;;;;;;15.10;34.40;;;;;;8362307;28;20320;-48
2022/01/13 10:40:24;;;;;;;;;;;15.20;34.50;;;;;;8362144;28;19913;-47
2022/01/13 10:44:25;;;;;;;;;;;15.10;34.40;;;;;;8362323;28;20019;-48
2022/01/13 10:48:27;;;;;;;;;;;15.10;34.40;;;;;;8362223;28;19925;-48
2022/01/13 10:52:28;;;;;;;;;;;15.10;34.40;;;;;;8361826;28;19924;-47
2022/01/13 10:56:28;;;;;;;;;;;15.10;34.40;;;;;;8361891;28;19917;-46
2022/01/13 11:00:30;;;;;;;;;;;15.10;34.40;;;;;;8362122;28;19936;-47
2022/01/13 11:04:34;;;;;;;;;;;15.10;34.40;;;;;;8361353;28;20287;-47
2022/01/13 11:08:42;;;;;;;;;;;15.10;34.40;;;;;;8361799;28;19917;-46
2022/01/13 11:12:44;;;;;;;;;;;15.10;34.40;;;;;;8366723;28;20294;-48
2022/01/13 11:16:45;;;;;;;;;;;15.10;34.40;;;;;;8367622;28;20076;-48
2022/01/13 11:20:46;;;;;;;;;;;15.10;34.50;;;;;;8367760;28;19921;-47
2022/01/13 11:24:46;;;;;;;;;;;15.10;34.50;;;;;;8366964;28;19950;-47
2022/01/13 11:28:47;;;;;;;;;;;15.10;34.50;;;;;;8367726;28;19986;-47
2022/01/13 11:32:49;;;;;;;;;;;15.10;34.50;;;;;;8367044;28;19925;-47
2022/01/13 11:36:50;;;;;;;;;;;15.10;34.50;;;;;;8366569;28;20255;-47
2022/01/13 11:40:52;;;;;;;;;;;15.10;34.50;;;;;;8367098;28;19921;-47
2022/01/13 11:45:11;;;;;;;;;;;15.20;34.50;;;;;;8366493;28;19952;-47
2022/01/13 11:49:18;;;;;;;;;;;15.20;34.50;;;;;;8366059;28;20015;-47
2022/01/13 11:53:27;;;;;;;;;;;15.20;34.50;;;;;;8366780;28;20066;-47
2022/01/13 11:57:28;;;;;;;;;;;15.20;34.50;;;;;;8366421;28;19996;-48
2022/01/13 12:01:31;;;;;;;;;;;15.30;34.50;;;;;;8365805;28;20270;-51
2022/01/13 12:05:40;;;;;;;;;;;15.30;34.60;;;;;;8366023;28;20381;-49
2022/01/13 12:09:40;;;;;;;;;;;15.30;34.50;;;;;;8366242;28;20419;-48
2022/01/13 12:13:44;;;;;;;;;;;15.30;34.50;;;;;;8365480;28;19971;-50
2022/01/13 12:17:44;;;;;;;;;;;15.30;34.50;;;;;;8365631;28;19920;-47
2022/01/13 12:21:59;;;;;;;;;;;15.30;34.50;;;;;;8365324;28;19916;-48
2022/01/13 12:26:00;;;;;;;;;;;15.30;34.60;;;;;;8372007;28;19917;-49
2022/01/13 12:30:04;;;;;;;;;;;15.30;35.00;;;;;;8365604;28;20290;-47
2022/01/13 12:34:18;;;;;;;;;;;15.30;34.60;;;;;;8364970;28;19917;-46
2022/01/13 12:38:20;;;;;;;;;;;15.30;34.60;;;;;;8365191;28;20007;-47
2022/01/13 12:42:34;;;;;;;;;;;15.30;34.50;;;;;;8365133;28;19921;-47
2022/01/13 12:46:36;;;;;;;;;;;15.30;34.60;;;;;;8364541;28;19917;-47
2022/01/13 12:50:41;;;;;;;;;;;15.30;34.60;;;;;;8364660;28;19925;-48
2022/01/13 12:54:45;;;;;;;;;;;15.30;34.60;;;;;;8364711;28;20396;-51
2022/01/13 12:58:49;;;;;;;;;;;15.30;34.60;;;;;;8364357;28;19955;-47
2022/01/13 13:02:50;;;;;;;;;;;15.30;34.60;;;;;;8364542;28;19979;-52
2022/01/13 13:06:52;;;;;;;;;;;15.30;34.60;;;;;;8364288;28;20388;-48
2022/01/13 13:10:57;;;;;;;;;;;15.30;34.60;;;;;;8364128;28;19925;-47
2022/01/13 13:19:18;;;;;;;;;;;15.30;34.60;;;;;;8363729;28;19967;-48
2022/01/13 13:23:31;;;;;;;;;;;15.30;34.60;;;;;;8364252;28;19936;-49
2022/01/13 13:27:31;;;;;;;;;;;15.30;34.70;;;;;;8365566;28;19927;-48
2022/01/13 13:31:33;;;;;;;;;;;15.30;34.70;;;;;;8362965;28;19929;-49
2022/01/13 13:35:33;;;;;;;;;;;15.30;34.60;;;;;;8363471;28;19917;-48
2022/01/13 13:39:34;;;;;;;;;;;15.30;34.60;;;;;;8363746;28;19913;-51
2022/01/13 13:43:34;;;;;;;;;;;15.30;34.60;;;;;;8363030;28;20095;-48
2022/01/13 13:47:35;;;;;;;;;;;15.40;34.60;;;;;;8363582;28;19913;-47
2022/01/13 13:51:36;;;;;;;;;;;15.40;34.60;;;;;;8363369;28;19931;-48
2022/01/13 13:55:40;;;;;;;;;;;15.40;34.60;;;;;;8361787;28;21309;-48
2022/01/13 13:59:44;;;;;;;;;;;15.40;34.60;;;;;;8362838;28;19940;-50
2022/01/13 14:03:45;;;;;;;;;;;15.40;34.60;;;;;;8362493;28;19963;-52
2022/01/13 14:07:47;;;;;;;;;;;15.40;34.60;;;;;;8363153;28;20330;-52
2022/01/13 14:11:48;;;;;;;;;;;15.40;34.70;;;;;;8361929;28;19921;-49
2022/01/13 14:15:48;;;;;;;;;;;15.40;34.70;;;;;;8362355;28;19924;-51
2022/01/13 14:20:06;;;;;;;;;;;15.40;34.70;;;;;;8362988;28;19917;-48
2022/01/13 14:24:06;;;;;;;;;;;15.40;34.70;;;;;;8362883;28;19956;-52
2022/01/13 14:28:09;;;;;;;;;;;15.40;34.70;;;;;;8362229;28;19939;-48
2022/01/13 14:32:23;;;;;;;;;;;15.40;34.70;;;;;;8362612;28;19924;-48
2022/01/13 14:36:25;;;;;;;;;;;15.40;34.70;;;;;;8362598;28;19923;-46
2022/01/13 14:40:28;;;;;;;;;;;15.40;34.70;;;;;;8361875;28;19924;-49
2022/01/13 14:44:29;;;;;;;;;;;15.30;34.70;;;;;;8365191;28;20401;-49
2022/01/13 14:48:30;;;;;;;;;;;15.30;34.70;;;;;;8368502;28;19920;-48
2022/01/13 14:52:30;;;;;;;;;;;15.30;34.70;;;;;;8368279;28;20294;-46
2022/01/13 14:56:31;;;;;;;;;;;15.30;34.80;;;;;;8368484;28;20088;-47
2022/01/13 15:00:32;;;;;;;;;;;15.30;35.30;;;;;;8368457;28;19920;-47
2022/01/13 15:04:32;;;;;;;;;;;15.30;34.70;;;;;;8366515;28;20380;-49
2022/01/13 15:08:33;;;;;;;;;;;15.30;34.80;;;;;;8361955;28;19924;-47
2022/01/13 15:12:34;;;;;;;;;;;15.30;34.70;;;;;;8365278;28;19932;-47
2022/01/13 15:16:36;;;;;;;;;;;15.40;34.80;;;;;;8365059;28;19927;-51
2022/01/13 15:20:36;;;;;;;;;;;15.40;34.80;;;;;;8366006;28;19944;-48
2022/01/13 15:24:38;;;;;;;;;;;15.40;34.80;;;;;;8366612;28;19921;-49
2022/01/13 15:28:38;;;;;;;;;;;15.40;34.80;;;;;;8363569;28;19924;-46
2022/01/13 15:32:38;;;;;;;;;;;15.40;34.70;;;;;;8365266;28;20351;-46
2022/01/13 15:36:39;;;;;;;;;;;15.40;34.80;;;;;;8365794;28;19917;-48
2022/01/13 15:40:40;;;;;;;;;;;15.40;34.70;;;;;;8363990;28;19917;-48
2022/01/13 15:44:41;;;;;;;;;;;15.40;34.70;;;;;;8364382;28;19916;-48
2022/01/13 15:48:41;;;;;;;;;;;15.40;34.70;;;;;;8366128;28;19944;-47
2022/01/13 15:52:42;;;;;;;;;;;15.40;34.80;;;;;;8364075;28;19951;-46
2022/01/13 15:56:43;;;;;;;;;;;15.40;34.80;;;;;;8363550;28;19924;-48
2022/01/13 16:00:44;;;;;;;;;;;15.40;34.80;;;;;;8363920;28;19917;-46
2022/01/13 16:04:44;;;;;;;;;;;15.40;34.80;;;;;;8364163;28;19932;-47
2022/01/13 16:08:45;;;;;;;;;;;15.40;34.80;;;;;;8363128;28;19917;-52
2022/01/13 16:12:45;;;;;;;;;;;15.30;34.80;;;;;;8363734;28;20273;-48
2022/01/13 16:16:46;;;;;;;;;;;15.40;34.80;;;;;;8363471;28;19917;-50
2022/01/13 16:20:47;;;;;;;;;;;15.30;34.80;;;;;;8365688;28;19924;-48
2022/01/13 16:24:48;;;;;;;;;;;15.30;34.80;;;;;;8364929;28;19995;-48
2022/01/13 16:28:49;;;;;;;;;;;15.30;34.80;;;;;;8365463;28;19995;-49
2022/01/13 16:32:51;;;;;;;;;;;15.30;34.80;;;;;;8365361;28;20343;-51
2022/01/13 16:36:51;;;;;;;;;;;15.30;34.90;;;;;;8364387;28;19927;-47
2022/01/13 16:40:52;;;;;;;;;;;15.30;34.90;;;;;;8364952;28;19924;-47
2022/01/13 16:44:52;;;;;;;;;;;15.30;34.90;;;;;;8364944;28;19916;-51
2022/01/13 16:48:53;;;;;;;;;;;15.30;34.90;;;;;;8364666;28;19992;-47
2022/01/13 16:52:53;;;;;;;;;;;15.30;34.90;;;;;;8365074;28;20382;-47
2022/01/13 16:56:54;;;;;;;;;;;15.30;34.90;;;;;;8359007;28;20388;-48
2022/01/13 17:00:54;;;;;;;;;;;15.30;34.90;;;;;;8359996;28;20358;-50
2022/01/13 17:04:55;;;;;;;;;;;15.30;34.90;;;;;;8357087;28;19916;-49
2022/01/13 17:08:55;;;;;;;;;;;15.30;34.90;;;;;;8360368;28;19948;-48
2022/01/13 17:12:56;;;;;;;;;;;15.30;34.80;;;;;;8343874;28;20401;-48
2022/01/13 17:16:58;;;;;;;;;;;15.30;34.80;;;;;;8361256;28;20382;-46
2022/01/13 17:20:58;;;;;;;;;;;15.30;34.80;;;;;;8363428;28;19913;-47
2022/01/13 17:24:59;;;;;;;;;;;15.30;34.80;;;;;;8362210;28;19917;-47
2022/01/13 17:29:00;;;;;;;;;;;15.30;34.80;;;;;;8363931;28;19966;-47
2022/01/13 17:33:00;;;;;;;;;;;15.40;34.80;;;;;;8363309;28;20001;-48
2022/01/13 17:37:01;;;;;;;;;;;15.30;34.70;;;;;;8363091;28;19972;-48
2022/01/13 17:41:01;;;;;;;;;;;15.30;34.70;;;;;;8362232;28;20000;-49
2022/01/13 17:45:03;;;;;;;;;;;15.30;34.70;;;;;;8355309;28;19920;-50
2022/01/13 17:49:05;;;;;;;;;;;15.30;34.70;;;;;;8347708;28;19929;-49
2022/01/13 17:53:06;;;;;;;;;;;15.30;34.70;;;;;;8362258;28;19948;-47
2022/01/13 17:57:07;;;;;;;;;;;15.30;34.80;;;;;;8363136;28;20440;-48
2022/01/13 18:01:08;;;;;;;;;;;15.30;34.80;;;;;;8361543;28;19996;-46
2022/01/13 18:05:11;;;;;;;;;;;15.30;34.80;;;;;;8362467;28;20323;-48
2022/01/13 18:09:11;;;;;;;;;;;15.20;34.80;;;;;;8363189;28;20042;-49
2022/01/13 18:13:12;;;;;;;;;;;15.30;34.80;;;;;;8362237;28;19924;-47
2022/01/13 18:17:12;;;;;;;;;;;15.30;34.80;;;;;;8362341;28;19917;-48
2022/01/13 18:21:13;;;;;;;;;;;15.20;34.90;;;;;;8368329;28;19913;-49
2022/01/13 18:25:14;;;;;;;;;;;15.20;34.90;;;;;;8368352;28;19920;-47
2022/01/13 18:29:14;;;;;;;;;;;15.20;34.90;;;;;;8369588;28;19924;-50
2022/01/13 18:33:15;;;;;;;;;;;15.20;34.90;;;;;;8368718;28;19925;-51
2022/01/13 18:37:17;;;;;;;;;;;15.20;34.90;;;;;;8368157;28;20290;-51
2022/01/13 18:41:17;;;;;;;;;;;15.20;34.90;;;;;;8369291;28;19986;-51
2022/01/13 18:45:22;;;;;;;;;;;15.20;34.90;;;;;;8368894;28;19915;-48
2022/01/13 18:49:23;;;;;;;;;;;15.20;34.90;;;;;;8360798;28;19959;-48
2022/01/13 18:53:24;;;;;;;;;;;15.20;34.90;;;;;;8367552;28;19925;-48
2022/01/13 18:57:24;;;;;;;;;;;15.20;34.90;;;;;;8365161;28;19917;-48
2022/01/13 19:01:24;;;;;;;;;;;15.30;34.90;;;;;;8367333;28;19931;-49
2022/01/13 19:05:25;;;;;;;;;;;15.30;34.80;;;;;;8368617;28;19919;-48
2022/01/13 19:09:25;;;;;;;;;;;15.30;34.80;;;;;;8368164;28;19924;-48
2022/01/13 19:13:26;;;;;;;;;;;15.30;34.80;;;;;;8367144;28;19983;-48
2022/01/13 19:17:53;;;;;;;;;;;15.30;34.80;;;;;;8366874;28;20183;-48
2022/01/13 19:21:53;;;;;;;;;;;15.30;34.80;;;;;;8367040;28;19920;-48
2022/01/13 19:25:54;;;;;;;;;;;15.20;34.80;;;;;;8367940;28;19944;-46
2022/01/13 19:29:55;;;;;;;;;;;15.20;34.70;;;;;;8365943;28;19917;-46
2022/01/13 19:33:56;;;;;;;;;;;15.30;34.80;;;;;;8367477;28;19917;-46
2022/01/13 19:37:56;;;;;;;;;;;15.30;34.70;;;;;;8367249;28;19917;-47
2022/01/13 19:41:57;;;;;;;;;;;15.30;34.70;;;;;;8366623;28;19998;-47
2022/01/13 19:45:57;;;;;;;;;;;15.20;34.80;;;;;;8366666;28;20374;-48
2022/01/13 19:49:59;;;;;;;;;;;15.20;34.80;;;;;;8364892;28;19927;-48
2022/01/13 19:53:59;;;;;;;;;;;15.20;34.80;;;;;;8367042;28;20416;-46
2022/01/13 19:58:00;;;;;;;;;;;15.20;34.80;;;;;;8366059;28;19917;-46
2022/01/13 20:02:01;;;;;;;;;;;15.20;34.80;;;;;;8362398;28;19925;-47
2022/01/13 20:06:02;;;;;;;;;;;15.20;34.90;;;;;;8357016;28;19966;-47
2022/01/13 20:10:03;;;;;;;;;;;15.20;34.90;;;;;;8365215;28;19924;-46
2022/01/13 20:14:03;;;;;;;;;;;15.20;34.90;;;;;;8366197;28;19943;-48
2022/01/13 20:18:05;;;;;;;;;;;15.20;34.90;;;;;;8366063;28;20374;-48
2022/01/13 20:22:06;;;;;;;;;;;15.20;35.00;;;;;;8364294;28;20007;-48
2022/01/13 20:26:07;;;;;;;;;;;15.20;34.90;;;;;;8365902;28;20046;-47
2022/01/13 20:30:11;;;;;;;;;;;15.20;34.90;;;;;;8360716;28;20336;-48
2022/01/13 20:34:12;;;;;;;;;;;15.20;34.80;;;;;;8360904;28;19928;-47
2022/01/13 20:38:14;;;;;;;;;;;15.20;34.80;;;;;;8364873;28;19921;-47
2022/01/13 20:42:15;;;;;;;;;;;15.20;34.90;;;;;;8364747;28;20050;-48
2022/01/13 20:46:15;;;;;;;;;;;15.20;34.80;;;;;;8364360;28;20401;-47
2022/01/13 20:50:16;;;;;;;;;;;15.20;34.80;;;;;;8365269;28;19929;-48
2022/01/13 20:54:17;;;;;;;;;;;15.20;34.80;;;;;;8364923;28;19923;-48
2022/01/13 20:58:19;;;;;;;;;;;15.20;34.80;;;;;;8364422;28;19917;-47
2022/01/13 21:02:19;;;;;;;;;;;15.20;34.80;;;;;;8364872;28;19920;-48
2022/01/13 21:06:20;;;;;;;;;;;15.20;34.80;;;;;;8364643;28;19958;-48
2022/01/13 21:10:21;;;;;;;;;;;15.20;34.80;;;;;;8364061;28;19951;-48
2022/01/13 21:14:22;;;;;;;;;;;15.20;34.80;;;;;;8364360;28;19917;-47
2022/01/13 21:18:23;;;;;;;;;;;15.20;34.80;;;;;;8364341;28;19928;-47
2022/01/13 21:22:24;;;;;;;;;;;15.20;34.80;;;;;;8363844;28;19917;-48
2022/01/13 21:26:25;;;;;;;;;;;15.10;34.80;;;;;;8363844;28;20282;-48
2022/01/13 21:30:26;;;;;;;;;;;15.10;34.80;;;;;;8364091;28;20055;-48
2022/01/13 21:34:31;;;;;;;;;;;15.10;34.90;;;;;;8363360;28;20309;-49
2022/01/13 21:38:31;;;;;;;;;;;15.10;34.90;;;;;;8363887;28;19924;-47
2022/01/13 21:42:32;;;;;;;;;;;15.10;34.90;;;;;;8363647;28;19921;-47
2022/01/13 21:46:34;;;;;;;;;;;15.10;34.90;;;;;;8362894;28;19921;-47
2022/01/13 21:50:34;;;;;;;;;;;15.10;34.90;;;;;;8363551;28;20377;-46
2022/01/13 21:54:35;;;;;;;;;;;15.10;34.90;;;;;;8362748;28;19971;-48
2022/01/13 21:58:36;;;;;;;;;;;15.10;34.80;;;;;;8362703;28;19960;-48
2022/01/13 22:02:36;;;;;;;;;;;15.10;34.90;;;;;;8362924;28;19916;-47
2022/01/13 22:06:37;;;;;;;;;;;15.10;34.90;;;;;;8362999;28;19963;-47
2022/01/13 22:10:37;;;;;;;;;;;15.10;34.90;;;;;;8362678;28;19921;-47
2022/01/13 22:14:39;;;;;;;;;;;15.20;35.40;;;;;;8362831;28;19917;-48
2022/01/13 22:18:39;;;;;;;;;;;15.20;34.80;;;;;;8362822;28;19920;-48
2022/01/13 22:22:42;;;;;;;;;;;15.20;34.70;;;;;;8362102;28;19944;-48
2022/01/13 22:26:45;;;;;;;;;;;15.30;34.70;;;;;;8362787;28;20012;-48
2022/01/13 22:30:46;;;;;;;;;;;15.30;34.70;;;;;;8362314;28;19947;-48
2022/01/13 22:34:46;;;;;;;;;;;15.30;34.60;;;;;;8362424;28;19917;-48
2022/01/13 22:38:46;;;;;;;;;;;15.30;34.60;;;;;;8362686;28;19917;-49
2022/01/13 22:42:48;;;;;;;;;;;15.30;34.60;;;;;;8361998;28;19959;-47
2022/01/13 22:46:50;;;;;;;;;;;15.30;34.60;;;;;;8362225;28;19913;-48
2022/01/13 22:50:50;;;;;;;;;;;15.30;34.60;;;;;;8362300;28;19932;-47
2022/01/13 22:54:50;;;;;;;;;;;15.30;34.60;;;;;;8361661;28;19963;-48
2022/01/13 22:58:51;;;;;;;;;;;15.20;34.60;;;;;;8362519;28;20011;-48
2022/01/13 23:02:51;;;;;;;;;;;15.20;34.60;;;;;;8360268;28;20382;-48
2022/01/13 23:06:52;;;;;;;;;;;15.20;34.60;;;;;;8366175;28;19921;-48
2022/01/13 23:10:53;;;;;;;;;;;15.20;34.60;;;;;;8368509;28;20004;-48
2022/01/13 23:23:12;;;;;;;;;;;15.20;34.70;;;;;;8367943;28;20388;-46
2022/01/13 23:27:13;;;;;;;;;;;15.10;34.70;;;;;;8367642;28;19917;-49
2022/01/13 23:31:13;;;;;;;;;;;15.10;34.70;;;;;;8367083;28;19931;-46
2022/01/13 23:35:14;;;;;;;;;;;15.10;34.70;;;;;;8367256;28;19921;-46
2022/01/13 23:39:15;;;;;;;;;;;15.10;34.70;;;;;;8367201;28;19921;-48
2022/01/13 23:43:16;;;;;;;;;;;15.10;34.70;;;;;;8366758;28;20370;-48
2022/01/13 23:47:17;;;;;;;;;;;15.10;34.80;;;;;;8367215;28;19916;-47
2022/01/13 23:51:17;;;;;;;;;;;15.10;34.70;;;;;;8367226;28;19925;-47
2022/01/13 23:55:18;;;;;;;;;;;15.10;34.70;;;;;;8366297;28;19967;-48
2022/01/13 23:59:18;;;;;;;;;;;15.10;34.70;;;;;;8366651;28;19916;-47
